Time;durP1;ratioP1;P1;durP2;ratioP2;P2;SDS_P1;SDS_P2;PMS_P1;PMS_P2;Temp;Humidity;BMP_temperature;BMP_pressure;BME280_temperature;BME280_humidity;BME280_pressure;Samples;Min_cycle;Max_cycle;Signal;HPM_P1;HPM_P2
2023/03/04 00:02:15;;;;;;;67.57;40.07;;;;;;;5.60;98.87;99616.41;5053311;28;20735;-69
2023/03/04 00:04:42;;;;;;;77.53;47.07;;;;;;;5.44;99.32;99611.09;5053672;28;20220;-69
2023/03/04 00:07:09;;;;;;;74.10;43.47;;;;;;;5.37;100.00;99618.00;5054239;28;20195;-69
2023/03/04 00:09:36;;;;;;;64.83;40.17;;;;;;;5.36;100.00;99613.69;5073276;28;20196;-69
2023/03/04 00:12:06;;;;;;;72.77;40.40;;;;;;;5.41;100.00;99606.16;5073429;28;20238;-69
2023/03/04 00:14:33;;;;;;;71.93;40.60;;;;;;;5.48;100.00;99606.34;5073646;28;20192;-68
2023/03/04 00:17:02;;;;;;;69.77;39.90;;;;;;;5.52;100.00;99612.94;5073467;28;20253;-69
2023/03/04 00:19:29;;;;;;;72.23;41.87;;;;;;;5.60;100.00;99600.59;5053725;28;20247;-69
2023/03/04 00:21:55;;;;;;;72.83;42.57;;;;;;;5.66;100.00;99599.13;5052981;28;20254;-69
2023/03/04 00:24:23;;;;;;;69.00;40.07;;;;;;;5.70;100.00;99590.75;5053156;28;20692;-68
2023/03/04 00:26:50;;;;;;;60.80;39.50;;;;;;;5.69;100.00;99599.59;5063719;28;20230;-68
2023/03/04 00:29:18;;;;;;;71.30;42.70;;;;;;;5.71;100.00;99600.28;5073175;28;20192;-68
2023/03/04 00:31:45;;;;;;;66.80;43.43;;;;;;;5.66;99.96;99605.22;5072747;28;20196;-68
2023/03/04 00:34:11;;;;;;;73.80;43.20;;;;;;;5.64;100.00;99607.19;5072740;28;20736;-68
2023/03/04 00:36:38;;;;;;;71.53;41.93;;;;;;;5.70;100.00;99605.72;5063457;28;20192;-69
2023/03/04 00:39:05;;;;;;;75.87;42.67;;;;;;;5.71;100.00;99596.81;5052924;28;20287;-69
2023/03/04 00:41:32;;;;;;;62.77;40.33;;;;;;;5.78;100.00;99593.38;5052693;28;20231;-69
2023/03/04 00:43:59;;;;;;;78.83;41.53;;;;;;;5.86;100.00;99594.41;5052773;28;20197;-69
2023/03/04 00:46:27;;;;;;;72.57;41.77;;;;;;;5.92;100.00;99599.03;5059355;28;20196;-69
2023/03/04 00:48:53;;;;;;;72.80;41.03;;;;;;;5.91;100.00;99600.03;5072433;28;20196;-69
2023/03/04 00:51:20;;;;;;;66.30;41.37;;;;;;;5.85;99.75;99598.03;5072762;28;20253;-69
2023/03/04 00:53:47;;;;;;;65.83;41.30;;;;;;;5.79;99.12;99597.66;5072344;28;20189;-69
2023/03/04 00:56:14;;;;;;;70.03;40.20;;;;;;;5.79;98.95;99602.94;5071622;28;20686;-69
2023/03/04 00:58:41;;;;;;;58.47;38.27;;;;;;;5.85;98.91;99608.56;5060917;28;20769;-69
2023/03/04 01:01:07;;;;;;;58.87;39.60;;;;;;;5.88;99.36;99613.53;5052310;28;20726;-69
2023/03/04 01:03:36;;;;;;;66.20;40.30;;;;;;;5.86;99.84;99603.13;5052200;28;20189;-69
2023/03/04 01:06:03;;;;;;;65.17;40.47;;;;;;;5.83;100.00;99610.56;5055354;28;20219;-69
2023/03/04 01:08:30;;;;;;;65.97;41.10;;;;;;;5.77;100.00;99607.53;5072347;28;20203;-68
2023/03/04 01:10:56;;;;;;;69.00;39.77;;;;;;;5.82;99.63;99598.34;5072429;28;20196;-69
2023/03/04 01:13:23;;;;;;;63.40;40.87;;;;;;;5.87;99.93;99596.88;5072060;28;20196;-69
2023/03/04 01:15:50;;;;;;;64.60;40.87;;;;;;;5.86;99.96;99599.66;5070272;28;20672;-69
2023/03/04 01:18:16;;;;;;;68.77;40.53;;;;;;;5.83;99.24;99598.19;5051987;28;20192;-68
2023/03/04 01:20:44;;;;;;;59.47;38.60;;;;;;;5.84;98.87;99591.91;5052318;28;20197;-68
2023/03/04 01:23:11;;;;;;;60.63;38.53;;;;;;;5.91;99.10;99586.84;5052153;28;20188;-68
2023/03/04 01:25:38;;;;;;;64.37;38.50;;;;;;;5.94;99.45;99587.31;5052130;28;20224;-68
2023/03/04 01:28:04;;;;;;;65.80;41.73;;;;;;;5.98;99.03;99587.81;5071521;28;20239;-68
2023/03/04 01:30:31;;;;;;;60.33;40.50;;;;;;;5.99;98.97;99586.81;5072242;28;20192;-68
2023/03/04 01:32:58;;;;;;;62.83;38.97;;;;;;;5.97;99.00;99584.38;5070002;28;20188;-68
2023/03/04 01:35:24;;;;;;;63.33;40.77;;;;;;;5.94;99.41;99587.31;5072172;28;20196;-68
2023/03/04 01:37:52;;;;;;;67.53;40.60;;;;;;;5.96;100.00;99579.25;5071661;28;20188;-69
2023/03/04 01:40:19;;;;;;;64.00;38.87;;;;;;;5.96;100.00;99577.44;5071796;28;20725;-68
2023/03/04 01:42:46;;;;;;;60.97;39.43;;;;;;;5.95;100.00;99577.63;5071652;28;20748;-68
2023/03/04 01:45:16;;;;;;;58.27;40.07;;;;;;;5.97;99.84;99576.47;5071689;28;20243;-68
2023/03/04 01:47:47;;;;;;;61.77;38.83;;;;;;;6.04;100.00;99571.34;5070764;28;20191;-68
2023/03/04 01:50:19;;;;;;;65.07;38.27;;;;;;;6.10;100.00;99571.50;5072177;28;20187;-69
2023/03/04 01:52:46;;;;;;;61.17;38.17;;;;;;;6.14;100.00;99572.00;5071325;28;20313;-68
2023/03/04 01:55:18;;;;;;;66.17;39.17;;;;;;;6.16;100.00;99570.03;5070204;28;20619;-69
2023/03/04 01:57:46;;;;;;;59.90;39.37;;;;;;;6.16;100.00;99564.75;5066730;28;20245;-68
2023/03/04 02:00:31;;;;;;;63.70;39.87;;;;;;;6.04;100.00;99563.44;5051981;28;20193;-68
2023/03/04 02:03:00;;;;;;;65.43;38.63;;;;;;;6.01;100.00;99571.69;5051828;28;20185;-67
2023/03/04 02:05:28;;;;;;;66.60;41.27;;;;;;;5.97;100.00;99575.63;5061952;28;20310;-67
2023/03/04 02:07:57;;;;;;;62.03;39.33;;;;;;;6.01;100.00;99571.69;5071464;28;20624;-68
2023/03/04 02:10:25;;;;;;;59.73;37.30;;;;;;;6.09;100.00;99563.75;5071905;28;20196;-68
2023/03/04 02:12:52;;;;;;;65.73;41.10;;;;;;;6.18;100.00;99568.03;5071614;28;20192;-68
2023/03/04 02:15:19;;;;;;;61.30;40.33;;;;;;;6.18;100.00;99558.31;5070487;28;20202;-69
2023/03/04 02:17:46;;;;;;;60.03;40.37;;;;;;;6.23;100.00;99558.63;5071744;28;20191;-68
2023/03/04 02:20:24;;;;;;;59.97;38.67;;;;;;;6.27;100.00;99556.47;5071302;28;20610;-69
2023/03/04 02:23:01;;;;;;;59.83;39.63;;;;;;;6.29;100.00;99559.78;5071696;28;20229;-68
2023/03/04 02:25:33;;;;;;;66.93;40.20;;;;;;;6.31;100.00;99557.78;5060897;28;20266;-68
2023/03/04 02:28:02;;;;;;;61.43;39.97;;;;;;;6.30;99.86;99556.16;5051518;28;20245;-67
2023/03/04 02:30:28;;;;;;;64.47;40.50;;;;;;;6.29;100.00;99560.59;5052532;28;20660;-68
2023/03/04 02:32:55;;;;;;;54.47;37.53;;;;;;;6.28;100.00;99548.41;5057735;28;20261;-69
2023/03/04 02:35:22;;;;;;;59.10;37.87;;;;;;;6.27;100.00;99540.66;5075230;28;20192;-69
2023/03/04 02:37:49;;;;;;;60.90;39.10;;;;;;;6.28;100.00;99537.84;5064905;28;20760;-69
2023/03/04 02:40:21;;;;;;;66.87;39.33;;;;;;;6.34;100.00;99542.47;5055187;28;20250;-68
2023/03/04 02:42:48;;;;;;;57.47;38.17;;;;;;;6.30;100.00;99535.88;5056153;28;20231;-68
2023/03/04 02:45:37;;;;;;;65.50;39.80;;;;;;;6.32;100.00;99533.09;5074683;28;20227;-68
2023/03/04 02:48:05;;;;;;;52.67;36.73;;;;;;;6.35;99.92;99532.72;5075309;28;20246;-68
2023/03/04 02:50:35;;;;;;;57.27;38.87;;;;;;;6.38;99.87;99537.69;5075030;28;20245;-68
2023/03/04 02:53:02;;;;;;;56.80;36.67;;;;;;;6.41;99.04;99534.72;5072064;28;20671;-67
2023/03/04 02:55:29;;;;;;;58.83;37.33;;;;;;;6.41;99.38;99537.34;5054974;28;20253;-68
2023/03/04 02:57:55;;;;;;;56.97;36.40;;;;;;;6.43;98.79;99540.63;5054778;28;20193;-68
2023/03/04 03:00:22;;;;;;;58.37;38.17;;;;;;;6.43;98.53;99545.91;5054575;28;20649;-68
2023/03/04 03:02:50;;;;;;;56.13;38.83;;;;;;;6.44;98.50;99542.25;5054639;28;20664;-67
2023/03/04 03:05:18;;;;;;;57.30;36.67;;;;;;;6.45;99.08;99546.56;5034787;28;20226;-68
2023/03/04 03:07:45;;;;;;;60.83;38.63;;;;;;;6.46;98.32;99550.84;5034874;28;20235;-68
2023/03/04 03:10:11;;;;;;;58.73;37.73;;;;;;;6.39;99.07;99558.63;5034368;28;20189;-68
2023/03/04 03:12:38;;;;;;;62.13;37.47;;;;;;;6.36;97.77;99558.13;5047287;28;20232;-68
2023/03/04 03:15:06;;;;;;;58.13;37.20;;;;;;;6.37;98.54;99563.22;5054255;28;20192;-68
2023/03/04 03:17:33;;;;;;;61.53;37.00;;;;;;;6.38;98.14;99566.69;5054280;28;20193;-68
2023/03/04 03:20:01;;;;;;;67.80;39.67;;;;;;;6.37;98.10;99567.69;5054652;28;20196;-68
2023/03/04 03:22:27;;;;;;;63.87;40.07;;;;;;;6.34;97.91;99566.22;5064266;28;20202;-68
2023/03/04 03:24:54;;;;;;;56.00;38.13;;;;;;;6.24;98.43;99570.03;5074266;28;20196;-68
2023/03/04 03:27:21;;;;;;;70.00;41.03;;;;;;;6.13;98.58;99565.91;5074510;28;20224;-68
2023/03/04 03:29:47;;;;;;;63.67;39.37;;;;;;;6.05;98.93;99563.28;5073965;28;20249;-68
2023/03/04 03:32:14;;;;;;;63.03;39.43;;;;;;;5.97;99.38;99573.00;5066405;28;20672;-68
2023/03/04 03:34:41;;;;;;;56.43;38.40;;;;;;;5.91;99.68;99576.31;5054185;28;20277;-68
2023/03/04 03:37:09;;;;;;;60.63;37.80;;;;;;;5.89;100.00;99573.00;5054224;28;20205;-68
2023/03/04 03:39:35;;;;;;;58.80;38.17;;;;;;;5.87;100.00;99569.72;5054346;28;20196;-68
2023/03/04 03:42:02;;;;;;;60.47;36.93;;;;;;;5.92;100.00;99564.75;5056675;28;20579;-68
2023/03/04 03:44:29;;;;;;;55.83;37.77;;;;;;;5.88;100.00;99566.06;5064007;28;20189;-68
2023/03/04 03:46:55;;;;;;;58.30;36.40;;;;;;;5.79;99.97;99565.19;5074052;28;20297;-68
2023/03/04 03:49:22;;;;;;;59.73;36.90;;;;;;;5.79;100.00;99566.03;5073929;28;20189;-68
2023/03/04 03:51:49;;;;;;;54.83;36.87;;;;;;;5.79;100.00;99567.84;5066925;28;20186;-68
2023/03/04 03:54:17;;;;;;;60.00;37.80;;;;;;;5.84;100.00;99572.66;5053549;28;20672;-68
2023/03/04 03:56:44;;;;;;;61.43;36.93;;;;;;;5.88;100.00;99568.72;5053742;28;20193;-68
2023/03/04 03:59:10;;;;;;;56.60;36.63;;;;;;;5.84;100.00;99564.75;5053542;28;20250;-69
2023/03/04 04:01:37;;;;;;;64.70;39.63;;;;;;;5.87;100.00;99564.44;5053858;28;20699;-68
2023/03/04 04:04:04;;;;;;;63.77;39.70;;;;;;;5.93;100.00;99564.59;5053723;28;20247;-67
2023/03/04 04:06:31;;;;;;;61.67;40.00;;;;;;;5.92;99.64;99567.41;5053522;28;20289;-68
2023/03/04 04:08:57;;;;;;;69.63;41.17;;;;;;;5.88;99.19;99560.81;5051621;28;20243;-68
2023/03/04 04:11:26;;;;;;;67.97;40.43;;;;;;;5.85;99.78;99561.13;5052287;28;20628;-67
2023/03/04 04:13:53;;;;;;;67.50;39.87;;;;;;;5.88;99.38;99563.44;5053566;28;20286;-68
2023/03/04 04:16:20;;;;;;;65.67;42.30;;;;;;;5.88;99.91;99560.81;5053089;28;20220;-68
2023/03/04 04:18:47;;;;;;;65.63;41.67;;;;;;;5.90;100.00;99558.81;5052736;28;20192;-68
2023/03/04 04:21:14;;;;;;;57.83;39.03;;;;;;;5.90;99.79;99557.00;5066979;28;20196;-68
2023/03/04 04:23:40;;;;;;;65.63;39.97;;;;;;;5.92;99.23;99564.75;5073480;28;20242;-68
2023/03/04 04:26:07;;;;;;;72.03;38.73;;;;;;;5.91;98.85;99565.75;5073163;28;20222;-68
2023/03/04 04:28:35;;;;;;;63.17;41.33;;;;;;;5.79;98.86;99565.19;5073309;28;20257;-68
2023/03/04 04:31:02;;;;;;;62.53;40.97;;;;;;;5.77;98.64;99569.81;5072453;28;20192;-68
2023/03/04 04:33:28;;;;;;;73.00;43.20;;;;;;;5.75;99.08;99572.63;5073156;28;20243;-68
2023/03/04 04:35:55;;;;;;;72.80;43.40;;;;;;;5.72;99.21;99577.41;5072610;28;20204;-68
2023/03/04 04:38:23;;;;;;;65.03;40.43;;;;;;;5.71;99.87;99581.84;5071417;28;20253;-67
2023/03/04 04:40:50;;;;;;;74.73;42.60;;;;;;;5.77;99.85;99581.19;5052883;28;20250;-67
2023/03/04 04:43:16;;;;;;;79.20;41.43;;;;;;;5.83;100.00;99586.84;5053052;28;20262;-68
2023/03/04 04:45:44;;;;;;;65.10;40.77;;;;;;;5.78;99.91;99572.31;5052805;28;20278;-68
2023/03/04 04:48:11;;;;;;;78.70;42.53;;;;;;;5.77;100.00;99577.75;5054165;28;20257;-68
2023/03/04 04:50:38;;;;;;;65.20;41.43;;;;;;;5.75;100.00;99572.63;5072722;28;20261;-68
2023/03/04 04:53:04;;;;;;;67.90;42.53;;;;;;;5.78;100.00;99576.75;5072434;28;20188;-68
2023/03/04 04:55:32;;;;;;;74.93;45.87;;;;;;;5.81;99.74;99586.16;5072301;28;20249;-68
2023/03/04 04:57:58;;;;;;;73.23;42.83;;;;;;;5.71;99.16;99581.84;5067449;28;20193;-67
2023/03/04 05:00:25;;;;;;;75.13;43.53;;;;;;;5.60;99.04;99582.16;5032419;28;20207;-68
2023/03/04 05:02:53;;;;;;;67.77;40.33;;;;;;;5.61;99.55;99586.41;5032910;28;20262;-68
2023/03/04 05:05:20;;;;;;;74.57;42.10;;;;;;;5.59;99.90;99582.31;5032193;28;20739;-68
2023/03/04 05:07:47;;;;;;;80.03;43.23;;;;;;;5.66;98.79;99597.31;5052746;28;20694;-68
2023/03/04 05:10:13;;;;;;;75.80;41.77;;;;;;;5.68;98.86;99605.88;5072412;28;20295;-68
2023/03/04 05:12:40;;;;;;;73.37;42.73;;;;;;;5.68;98.13;99600.59;5072447;28;20194;-68
2023/03/04 05:15:08;;;;;;;69.83;41.80;;;;;;;5.69;98.11;99598.81;5072347;28;20192;-68
2023/03/04 05:17:34;;;;;;;68.20;42.93;;;;;;;5.71;98.29;99600.28;5063991;28;20242;-68
2023/03/04 05:20:03;;;;;;;76.27;44.63;;;;;;;5.73;99.22;99602.75;5052457;28;20251;-68
2023/03/04 05:22:29;;;;;;;74.97;40.97;;;;;;;5.80;99.34;99595.84;5052053;28;20279;-68
2023/03/04 05:24:56;;;;;;;73.53;42.47;;;;;;;5.84;99.60;99597.19;5051856;28;20626;-67
2023/03/04 05:27:23;;;;;;;78.13;44.07;;;;;;;5.82;98.61;99593.06;5071485;28;20657;-68
2023/03/04 05:29:49;;;;;;;69.63;43.80;;;;;;;5.86;99.40;99604.94;5072241;28;20196;-67
2023/03/04 05:32:16;;;;;;;66.60;42.63;;;;;;;5.90;99.42;99603.63;5072119;28;20245;-67
2023/03/04 05:34:43;;;;;;;73.57;43.73;;;;;;;5.97;99.93;99609.91;5071925;28;20192;-68
2023/03/04 05:37:11;;;;;;;69.37;43.73;;;;;;;6.07;100.00;99608.75;5068672;28;20671;-68
2023/03/04 05:39:37;;;;;;;76.07;45.93;;;;;;;6.12;100.00;99601.16;5052154;28;20194;-68
2023/03/04 05:42:04;;;;;;;76.77;45.80;;;;;;;6.08;99.12;99601.66;5052047;28;20271;-68
2023/03/04 05:44:31;;;;;;;77.07;45.37;;;;;;;5.90;98.66;99601.81;5052050;28;20250;-68
2023/03/04 05:46:57;;;;;;;78.47;44.60;;;;;;;6.01;99.22;99600.66;5051640;28;20274;-68
2023/03/04 05:49:24;;;;;;;72.83;42.47;;;;;;;6.00;97.76;99607.75;5051558;28;20197;-68
2023/03/04 05:51:51;;;;;;;74.87;44.70;;;;;;;5.99;97.01;99615.81;5051626;28;20193;-68
2023/03/04 05:54:20;;;;;;;70.37;42.77;;;;;;;6.01;97.32;99611.22;5051566;28;20656;-68
2023/03/04 05:56:47;;;;;;;70.37;40.17;;;;;;;5.93;96.51;99611.22;5052083;28;20200;-69
2023/03/04 05:59:19;;;;;;;58.67;38.07;;;;;;;5.92;97.06;99604.31;5051775;28;20702;-69
2023/03/04 06:01:45;;;;;;;64.23;38.10;;;;;;;5.97;97.25;99613.38;5051827;28;20193;-69
2023/03/04 06:04:12;;;;;;;67.97;39.67;;;;;;;6.00;97.54;99622.75;5051437;28;20194;-69
2023/03/04 06:06:39;;;;;;;60.87;39.23;;;;;;;6.05;97.25;99615.19;5055681;28;20613;-69
2023/03/04 06:09:06;;;;;;;68.23;38.43;;;;;;;6.12;96.93;99621.44;5055421;28;20622;-69
2023/03/04 06:11:34;;;;;;;68.70;39.67;;;;;;;6.12;96.41;99627.53;5055768;28;20200;-69
2023/03/04 06:14:00;;;;;;;74.87;40.20;;;;;;;6.16;97.14;99631.47;5055275;28;20725;-69
2023/03/04 06:16:27;;;;;;;68.03;39.07;;;;;;;6.22;96.39;99632.66;5064446;28;20675;-69
2023/03/04 06:18:54;;;;;;;74.93;41.40;;;;;;;6.25;95.63;99622.56;5075963;28;20324;-68
2023/03/04 06:21:20;;;;;;;182.27;44.30;;;;;;;6.23;95.32;99627.22;5075526;28;20200;-68
2023/03/04 06:23:47;;;;;;;75.33;38.80;;;;;;;6.07;95.17;99623.72;5075532;28;20193;-68
2023/03/04 06:26:14;;;;;;;150.97;39.87;;;;;;;6.06;96.41;99633.47;5074480;28;20354;-68
2023/03/04 06:28:43;;;;;;;66.63;35.77;;;;;;;6.04;96.23;99645.97;5063205;28;20718;-68
2023/03/04 06:31:09;;;;;;;105.13;34.90;;;;;;;5.99;96.99;99636.91;5054982;28;20258;-68
2023/03/04 06:33:36;;;;;;;83.87;32.27;;;;;;;6.07;97.40;99650.09;5054639;28;20682;-69
2023/03/04 06:36:03;;;;;;;66.20;32.37;;;;;;;6.10;97.39;99650.63;5051726;28;20259;-69
2023/03/04 06:38:30;;;;;;;52.73;26.00;;;;;;;6.00;96.12;99649.94;5056714;28;20197;-69
2023/03/04 06:40:57;;;;;;;40.03;25.27;;;;;;;5.82;95.78;99656.31;5054260;28;20568;-71
2023/03/04 06:43:23;;;;;;;35.27;23.63;;;;;;;5.71;95.97;99660.91;5054469;28;20254;-70
2023/03/04 06:45:51;;;;;;;55.53;28.00;;;;;;;5.84;95.56;99660.44;5053984;28;20189;-70
2023/03/04 06:48:18;;;;;;;39.50;24.73;;;;;;;5.98;95.90;99659.00;5054986;28;20197;-69
2023/03/04 06:50:45;;;;;;;42.47;25.07;;;;;;;6.06;95.57;99664.28;5054997;28;20261;-69
2023/03/04 06:53:13;;;;;;;49.93;25.87;;;;;;;6.11;95.14;99656.69;5054603;28;20192;-70
2023/03/04 06:55:40;;;;;;;47.37;27.17;;;;;;;6.05;94.39;99665.28;5055675;28;20188;-69
2023/03/04 06:58:07;;;;;;;42.70;28.23;;;;;;;6.03;96.40;99664.59;5068484;28;20232;-69
2023/03/04 07:00:33;;;;;;;41.87;26.67;;;;;;;5.99;96.99;99668.53;5053374;28;20185;-70
2023/03/04 07:03:01;;;;;;;45.73;26.77;;;;;;;5.97;97.27;99660.00;5053079;28;20663;-70
2023/03/04 07:05:28;;;;;;;48.87;28.60;;;;;;;6.04;97.72;99663.63;5053441;28;20246;-70
2023/03/04 07:07:55;;;;;;;48.90;29.00;;;;;;;6.17;97.88;99666.59;5072772;28;20312;-70
2023/03/04 07:10:22;;;;;;;55.00;32.03;;;;;;;6.26;97.95;99671.72;5073506;28;20204;-69
2023/03/04 07:12:48;;;;;;;60.93;31.73;;;;;;;6.24;97.35;99652.59;5068697;28;20265;-70
2023/03/04 07:15:15;;;;;;;60.63;32.53;;;;;;;6.43;97.65;99661.97;5052700;28;20196;-70
2023/03/04 07:17:42;;;;;;;59.57;33.93;;;;;;;6.46;96.83;99662.50;5053234;28;20684;-69
2023/03/04 07:20:11;;;;;;;71.23;43.30;;;;;;;6.48;96.56;99667.56;5052511;28;20207;-69
2023/03/04 07:22:38;;;;;;;63.80;34.53;;;;;;;6.42;96.77;99661.19;5052602;28;20242;-69
2023/03/04 07:25:05;;;;;;;64.13;34.30;;;;;;;6.46;97.23;99664.28;5049663;28;20686;-68
2023/03/04 07:27:32;;;;;;;69.00;34.13;;;;;;;6.46;96.71;99666.94;5052511;28;20239;-70
2023/03/04 07:29:59;;;;;;;69.00;35.60;;;;;;;6.54;97.53;99664.28;5052834;28;20190;-72
2023/03/04 07:32:25;;;;;;;57.73;35.23;;;;;;;6.56;97.81;99660.50;5053024;28;20193;-70
2023/03/04 07:34:52;;;;;;;63.53;36.30;;;;;;;6.55;97.46;99658.03;5057195;28;20246;-72
2023/03/04 07:37:20;;;;;;;63.00;36.17;;;;;;;6.59;98.29;99646.97;5072473;28;20200;-70
2023/03/04 07:39:47;;;;;;;67.60;36.50;;;;;;;6.71;99.01;99647.44;5073081;28;20268;-71
2023/03/04 07:42:13;;;;;;;64.90;36.63;;;;;;;6.78;98.81;99643.16;5072628;28;20207;-70
2023/03/04 07:44:40;;;;;;;73.20;41.63;;;;;;;6.80;98.19;99639.34;5069591;28;20192;-68
2023/03/04 07:47:07;;;;;;;72.37;40.90;;;;;;;6.84;98.92;99639.81;5052675;28;20254;-69
2023/03/04 07:49:34;;;;;;;69.03;39.13;;;;;;;6.94;98.78;99637.84;5050941;28;20261;-70
2023/03/04 07:52:03;;;;;;;73.40;40.50;;;;;;;7.09;98.86;99636.13;5056762;28;20637;-68
2023/03/04 07:54:31;;;;;;;61.00;36.97;;;;;;;7.19;96.68;99634.13;5051909;28;20640;-69
2023/03/04 07:56:58;;;;;;;62.20;35.67;;;;;;;7.29;96.02;99632.91;5071105;28;20196;-71
2023/03/04 07:59:25;;;;;;;65.03;36.70;;;;;;;7.33;95.26;99626.28;5016770;28;1111575;-71
2023/03/04 08:01:51;;;;;;;68.47;37.70;;;;;;;7.50;94.75;99637.59;5052759;28;20192;-70
2023/03/04 08:04:18;;;;;;;72.63;37.67;;;;;;;7.65;95.67;99641.16;5050194;28;20231;-72
2023/03/04 08:06:45;;;;;;;61.37;35.63;;;;;;;7.76;95.37;99638.13;5052950;28;20704;-72
2023/03/04 08:09:12;;;;;;;62.30;34.53;;;;;;;7.73;93.04;99635.81;5053518;28;20202;-72
2023/03/04 08:11:41;;;;;;;59.23;36.07;;;;;;;7.80;93.29;99639.44;5053437;28;20235;-72
2023/03/04 08:14:10;;;;;;;66.83;38.70;;;;;;;7.86;92.76;99634.25;5052999;28;20188;-72
2023/03/04 08:16:37;;;;;;;74.53;40.10;;;;;;;8.00;93.23;99632.69;5053241;28;20192;-74
2023/03/04 08:19:05;;;;;;;77.63;41.17;;;;;;;8.13;93.03;99636.38;5070621;28;20725;-74
2023/03/04 08:21:32;;;;;;;61.63;36.80;;;;;;;8.18;91.19;99641.13;5055477;28;20675;-73
2023/03/04 08:24:01;;;;;;;72.07;39.77;;;;;;;8.28;91.19;99649.69;5051942;28;20189;-75
2023/03/04 08:26:29;;;;;;;75.87;39.03;;;;;;;8.38;91.32;99642.34;5052941;28;20196;-75
2023/03/04 08:28:58;;;;;;;63.77;37.93;;;;;;;8.42;92.07;99651.56;5051527;28;20748;-76
2023/03/04 08:31:25;;;;;;;64.23;37.70;;;;;;;8.55;92.54;99646.47;5052632;28;20193;-68
2023/03/04 08:33:52;;;;;;;63.63;36.77;;;;;;;8.70;92.02;99647.34;5051965;28;20632;-65
2023/03/04 08:36:19;;;;;;;66.90;38.53;;;;;;;8.75;89.39;99655.56;5064578;28;20283;-66
2023/03/04 08:38:46;;;;;;;66.93;38.77;;;;;;;8.70;89.66;99653.44;5069155;28;20708;-66
2023/03/04 08:41:14;;;;;;;59.70;39.10;;;;;;;8.72;90.73;99647.97;5059265;28;20726;-66
2023/03/04 08:43:41;;;;;;;63.83;36.73;;;;;;;8.76;90.65;99649.25;5052488;28;20200;-66
2023/03/04 08:46:09;;;;;;;62.93;38.07;;;;;;;8.76;91.05;99650.09;5063676;28;20245;-67
2023/03/04 08:48:37;;;;;;;61.77;38.90;;;;;;;8.82;90.89;99649.34;5072611;28;20216;-66
2023/03/04 08:51:08;;;;;;;64.73;40.50;;;;;;;8.90;90.57;99645.81;5072324;28;20196;-65
2023/03/04 08:53:34;;;;;;;91.13;43.30;;;;;;;9.11;90.78;99648.56;5072737;28;20188;-65
2023/03/04 08:56:02;;;;;;;82.57;41.90;;;;;;;9.30;89.24;99653.28;5071964;28;20234;-66
2023/03/04 08:58:29;;;;;;;69.43;43.23;;;;;;;9.41;88.11;99650.19;5067479;28;20835;-65
2023/03/04 09:00:56;;;;;;;73.83;45.17;;;;;;;9.57;89.05;99634.06;5056399;28;20196;-66
2023/03/04 09:03:24;;;;;;;81.30;46.47;;;;;;;9.76;87.48;99638.78;5052179;28;20196;-66
2023/03/04 09:05:51;;;;;;;81.93;47.63;;;;;;;9.83;87.48;99631.69;5052412;28;20201;-65
2023/03/04 09:08:17;;;;;;;81.83;46.37;;;;;;;9.98;86.66;99628.00;5052206;28;20216;-66
2023/03/04 09:10:45;;;;;;;76.33;46.67;;;;;;;10.29;85.44;99625.88;5063772;28;20667;-67
2023/03/04 09:13:13;;;;;;;79.40;49.47;;;;;;;10.70;89.61;99620.69;5052404;28;20192;-66
2023/03/04 09:15:44;;;;;;;73.70;45.47;;;;;;;11.15;85.28;99622.81;5052264;28;20197;-66
2023/03/04 09:18:11;;;;;;;79.73;45.37;;;;;;;11.46;82.39;99631.16;5052270;28;20258;-71
2023/03/04 09:20:39;;;;;;;80.80;43.10;;;;;;;11.51;81.01;99631.38;5051852;28;20193;-70
2023/03/04 09:23:08;;;;;;;50.47;35.40;;;;;;;11.67;81.83;99628.41;5051844;28;20194;-65
2023/03/04 09:25:35;;;;;;;54.93;35.43;;;;;;;11.90;78.89;99636.88;5052065;28;20635;-67
2023/03/04 09:28:01;;;;;;;57.07;36.83;;;;;;;12.04;77.01;99635.88;5051713;28;20675;-63
2023/03/04 09:30:28;;;;;;;64.67;37.23;;;;;;;12.09;75.81;99633.41;5056716;28;20195;-62
2023/03/04 09:32:55;;;;;;;62.50;37.33;;;;;;;12.10;74.97;99627.09;5047523;28;20197;-63
2023/03/04 09:35:22;;;;;;;70.97;42.13;;;;;;;12.15;77.06;99627.28;5035429;28;20202;-63
2023/03/04 09:37:51;;;;;;;61.90;41.37;;;;;;;12.20;77.95;99624.84;5051271;28;20199;-64
2023/03/04 09:40:21;;;;;;;92.47;42.43;;;;;;;12.40;80.26;99625.69;5050410;28;20588;-65
2023/03/04 09:42:51;;;;;;;64.87;41.27;;;;;;;12.44;77.25;99629.56;5064506;28;20341;-67
2023/03/04 09:45:20;;;;;;;67.40;41.87;;;;;;;12.76;80.39;99612.75;5051606;28;20245;-65
2023/03/04 09:47:49;;;;;;;74.63;40.67;;;;;;;12.95;76.38;99619.88;5050245;28;20721;-65
2023/03/04 09:50:18;;;;;;;66.40;39.23;;;;;;;12.91;74.79;99624.00;5042039;28;20200;-67
2023/03/04 09:53:01;;;;;;;61.90;38.20;;;;;;;12.92;74.76;99627.50;5050993;28;20554;-66
2023/03/04 09:55:33;;;;;;;63.10;38.07;;;;;;;12.91;73.33;99629.31;5051500;28;20242;-70
2023/03/04 09:58:07;;;;;;;60.93;39.30;;;;;;;12.89;74.12;99626.06;5047857;28;21378;-71
2023/03/04 10:00:39;;;;;;;53.87;35.53;;;;;;;12.77;72.17;99621.56;5055743;28;20238;-70
2023/03/04 10:03:14;;;;;;;42.00;32.70;;;;;;;12.95;72.17;99622.56;5065734;28;20243;-69
2023/03/04 10:05:49;;;;;;;48.07;30.33;;;;;;;12.85;72.87;99622.19;5051600;28;20184;-68
2023/03/04 10:08:32;;;;;;;36.07;26.03;;;;;;;12.57;72.47;99618.91;5051292;28;20629;-69
2023/03/04 10:11:00;;;;;;;41.47;28.10;;;;;;;12.64;71.83;99616.25;5058614;28;20184;-69
2023/03/04 10:13:35;;;;;;;36.00;26.17;;;;;;;12.77;72.48;99614.41;5071258;28;20196;-69
2023/03/04 10:16:05;;;;;;;39.77;28.43;;;;;;;12.75;73.02;99607.63;5071246;28;20658;-69
2023/03/04 10:18:36;;;;;;;34.70;25.87;;;;;;;12.87;71.42;99616.63;5071495;28;20203;-70
2023/03/04 10:21:13;;;;;;;40.03;27.63;;;;;;;12.92;72.00;99607.00;5062984;28;20181;-69
2023/03/04 10:23:41;;;;;;;69.43;27.73;;;;;;;12.86;71.98;99597.16;5031401;28;20216;-68
2023/03/04 10:26:14;;;;;;;40.70;26.07;;;;;;;12.76;71.96;99599.44;5030928;28;20196;-68
2023/03/04 10:28:41;;;;;;;65.50;29.33;;;;;;;12.58;72.69;99593.91;5029110;28;20217;-68
2023/03/04 10:31:17;;;;;;;66.43;26.90;;;;;;;12.64;74.30;99589.59;5040843;28;20193;-72
2023/03/04 10:33:44;;;;;;;35.60;27.30;;;;;;;12.75;72.75;99587.16;5063853;28;20201;-68
2023/03/04 10:36:30;;;;;;;41.00;29.03;;;;;;;12.82;72.89;99573.81;5051615;28;20194;-68
2023/03/04 10:39:01;;;;;;;42.63;28.67;;;;;;;12.92;73.48;99567.00;5050624;28;20192;-67
2023/03/04 10:41:30;;;;;;;47.87;32.03;;;;;;;12.90;73.31;99568.25;5060488;28;20184;-68
2023/03/04 10:44:02;;;;;;;47.43;30.93;;;;;;;12.65;74.39;99559.25;5055445;28;20250;-68
2023/03/04 10:46:29;;;;;;;44.23;30.67;;;;;;;12.66;75.39;99560.91;5070990;28;20182;-70
2023/03/04 10:48:56;;;;;;;38.50;29.97;;;;;;;12.78;76.17;99553.91;5069639;28;20226;-70
2023/03/04 10:51:25;;;;;;;43.33;31.77;;;;;;;12.85;75.89;99550.19;5056214;28;20200;-70
2023/03/04 10:53:58;;;;;;;46.57;33.70;;;;;;;12.85;76.72;99544.88;5053501;28;20660;-70
2023/03/04 10:56:34;;;;;;;44.93;33.03;;;;;;;12.91;77.22;99536.00;5053538;28;20192;-70
2023/03/04 10:59:32;;;;;;;52.43;38.50;;;;;;;12.97;75.67;99545.91;5053130;28;20812;-70
2023/03/04 11:01:59;;;;;;;48.47;33.23;;;;;;;13.06;77.27;99530.47;5070373;28;20241;-69
2023/03/04 11:04:32;;;;;;;46.37;31.90;;;;;;;13.04;78.30;99524.53;5072242;28;20202;-69
2023/03/04 11:06:59;;;;;;;48.40;33.27;;;;;;;13.03;77.40;99526.38;5074298;28;20188;-70
2023/03/04 11:09:28;;;;;;;41.63;31.07;;;;;;;12.90;76.84;99513.06;5074572;28;20223;-70
2023/03/04 11:11:58;;;;;;;42.83;30.90;;;;;;;12.91;78.43;99501.34;5054545;28;20588;-70
2023/03/04 11:14:29;;;;;;;46.63;33.60;;;;;;;13.10;78.16;99497.84;5054582;28;20200;-69
2023/03/04 11:16:59;;;;;;;45.50;32.13;;;;;;;13.19;76.63;99493.91;5054093;28;20197;-70
2023/03/04 11:19:33;;;;;;;41.00;30.27;;;;;;;13.30;76.85;99487.91;5054152;28;20666;-70
2023/03/04 11:22:01;;;;;;;39.10;29.53;;;;;;;13.43;74.32;99485.16;5055332;28;20218;-69
2023/03/04 11:24:33;;;;;;;45.13;32.07;;;;;;;13.52;75.28;99483.06;5052324;28;20206;-70
2023/03/04 11:27:06;;;;;;;39.27;29.17;;;;;;;13.49;74.61;99484.31;5054159;28;20664;-69